createdAt,value
2017-03-04T00:00:27.078Z,0
2017-03-04T00:01:07.579Z,0
2017-03-04T00:01:48.079Z,0
2017-03-04T00:02:28.703Z,0
2017-03-04T00:03:09.142Z,0
2017-03-04T00:03:49.633Z,0
2017-03-04T00:04:30.111Z,0
2017-03-04T00:05:10.590Z,0
2017-03-04T00:05:51.107Z,0
2017-03-04T00:06:31.612Z,0
2017-03-04T00:07:12.140Z,0
2017-03-04T00:07:52.598Z,0
2017-03-04T00:08:33.142Z,0
2017-03-04T00:09:13.632Z,0
2017-03-04T00:09:54.108Z,0
2017-03-04T00:10:34.676Z,0
2017-03-04T00:11:15.248Z,0
2017-03-04T00:11:55.745Z,0
2017-03-04T00:12:36.220Z,0
2017-03-04T00:13:16.767Z,0
2017-03-04T00:13:57.176Z,0
2017-03-04T00:14:37.701Z,0
2017-03-04T00:15:18.211Z,0
2017-03-04T00:15:58.710Z,0
2017-03-04T00:16:39.181Z,0
2017-03-04T00:17:19.671Z,0
2017-03-04T00:18:00.174Z,0
2017-03-04T00:18:40.676Z,0
2017-03-04T00:19:21.272Z,0
2017-03-04T00:20:01.775Z,0
2017-03-04T00:20:42.235Z,0
2017-03-04T00:21:22.821Z,0
2017-03-04T00:22:03.322Z,0
2017-03-04T00:22:43.803Z,0
2017-03-04T00:23:25.132Z,0
2017-03-04T00:24:04.751Z,0
2017-03-04T00:24:45.260Z,0
2017-03-04T00:25:26.009Z,0
2017-03-04T00:26:07.379Z,0
2017-03-04T00:26:47.894Z,0
2017-03-04T00:27:28.436Z,0
2017-03-04T00:28:08.945Z,0
2017-03-04T00:28:49.433Z,0
2017-03-04T00:29:29.912Z,0
2017-03-04T00:30:10.413Z,0
2017-03-04T00:30:50.903Z,0
2017-03-04T00:31:31.408Z,0
2017-03-04T00:32:11.874Z,0
2017-03-04T00:32:52.374Z,0
2017-03-04T00:33:32.921Z,0
2017-03-04T00:34:13.387Z,0
2017-03-04T00:34:53.880Z,0
2017-03-04T00:35:34.373Z,0
2017-03-04T00:36:14.869Z,0
2017-03-04T00:36:55.342Z,0
2017-03-04T00:37:35.826Z,0
2017-03-04T00:38:16.336Z,0
2017-03-04T00:38:56.822Z,0
2017-03-04T00:39:37.334Z,0
2017-03-04T00:40:17.809Z,0
2017-03-04T00:40:58.282Z,0
2017-03-04T00:41:38.801Z,0
2017-03-04T00:42:19.313Z,0
2017-03-04T00:42:59.794Z,0
2017-03-04T00:43:40.285Z,0
2017-03-04T00:44:20.834Z,0
2017-03-04T00:45:01.285Z,0
2017-03-04T00:45:41.789Z,0
2017-03-04T00:46:22.265Z,0
2017-03-04T00:47:02.803Z,0
2017-03-04T00:47:43.260Z,0
2017-03-04T00:48:23.959Z,0
2017-03-04T00:49:04.360Z,0
2017-03-04T00:49:44.912Z,0
2017-03-04T00:50:25.366Z,0
2017-03-04T00:51:05.842Z,0
2017-03-04T00:51:46.355Z,0
2017-03-04T00:52:26.869Z,0
2017-03-04T00:53:07.369Z,0
2017-03-04T00:53:47.883Z,0
2017-03-04T00:54:28.363Z,0
2017-03-04T00:55:08.832Z,0
2017-03-04T00:55:49.363Z,0
2017-03-04T00:56:29.835Z,0
2017-03-04T00:57:10.359Z,0
2017-03-04T00:57:50.900Z,0
2017-03-04T00:58:31.419Z,0
2017-03-04T00:59:11.908Z,0
2017-03-04T00:59:52.392Z,0
2017-03-04T01:00:32.874Z,0
2017-03-04T01:01:13.340Z,0
2017-03-04T01:01:53.879Z,0
2017-03-04T01:02:34.405Z,0
2017-03-04T01:03:15.063Z,0
2017-03-04T01:03:55.592Z,0
2017-03-04T01:04:36.099Z,0
2017-03-04T01:05:16.551Z,0
2017-03-04T01:05:57.051Z,0
2017-03-04T01:06:37.553Z,0
2017-03-04T01:07:17.996Z,0
2017-03-04T01:07:58.504Z,0
2017-03-04T01:08:39.166Z,0
2017-03-04T01:09:19.668Z,0
2017-03-04T01:10:00.156Z,0
2017-03-04T01:10:40.674Z,0
2017-03-04T01:11:21.189Z,0
2017-03-04T01:12:01.666Z,0
2017-03-04T01:12:42.182Z,0
2017-03-04T01:13:22.647Z,0
2017-03-04T01:14:03.146Z,0
2017-03-04T01:14:43.640Z,0
2017-03-04T01:15:24.177Z,0
2017-03-04T01:16:04.659Z,0
2017-03-04T01:16:45.181Z,0
2017-03-04T01:17:25.676Z,0
2017-03-04T01:18:06.164Z,0
2017-03-04T01:18:46.643Z,0
2017-03-04T01:19:27.151Z,0
2017-03-04T01:20:07.643Z,0
2017-03-04T01:20:48.110Z,0
2017-03-04T01:21:28.642Z,0
2017-03-04T01:22:09.090Z,0
2017-03-04T01:22:49.616Z,0
2017-03-04T01:23:30.153Z,0
2017-03-04T01:24:10.643Z,0
2017-03-04T01:24:51.165Z,0
2017-03-04T01:25:31.643Z,0
2017-03-04T01:26:12.176Z,0
2017-03-04T01:26:52.650Z,0
2017-03-04T01:27:33.178Z,0
2017-03-04T01:28:13.673Z,0
2017-03-04T01:28:54.193Z,0
2017-03-04T01:29:34.720Z,0
2017-03-04T01:30:15.205Z,0
2017-03-04T01:30:55.699Z,0
2017-03-04T01:31:36.217Z,0
2017-03-04T01:32:16.840Z,0
2017-03-04T01:32:57.359Z,0
2017-03-04T01:33:37.892Z,0
2017-03-04T01:34:18.309Z,0
2017-03-04T01:34:58.840Z,0
2017-03-04T01:35:39.317Z,0
2017-03-04T01:36:19.830Z,0
2017-03-04T01:37:00.307Z,0
2017-03-04T01:37:40.809Z,0
2017-03-04T01:38:21.280Z,0
2017-03-04T01:39:01.801Z,0
2017-03-04T01:39:42.251Z,0
2017-03-04T01:40:22.719Z,0
2017-03-04T01:41:03.244Z,0
2017-03-04T01:41:43.739Z,0
2017-03-04T01:42:24.556Z,0
2017-03-04T01:43:04.780Z,0
2017-03-04T01:43:45.208Z,0
2017-03-04T01:44:25.706Z,0
2017-03-04T01:45:06.199Z,0
2017-03-04T01:45:46.725Z,0
2017-03-04T01:46:27.201Z,0
2017-03-04T01:47:07.712Z,0
2017-03-04T01:47:48.186Z,0
2017-03-04T01:48:28.681Z,0
2017-03-04T01:49:09.160Z,0
2017-03-04T01:49:49.683Z,0
2017-03-04T01:50:30.180Z,0
2017-03-04T01:51:10.675Z,0
2017-03-04T01:51:51.188Z,0
2017-03-04T01:52:31.734Z,0
2017-03-04T01:53:12.361Z,0
2017-03-04T01:53:52.979Z,0
2017-03-04T01:54:33.486Z,0
2017-03-04T01:55:14.001Z,0
2017-03-04T01:55:54.576Z,0
2017-03-04T01:56:35.030Z,0
2017-03-04T01:57:15.486Z,0
2017-03-04T01:57:55.999Z,0
2017-03-04T01:58:36.507Z,0
2017-03-04T01:59:17.039Z,0
2017-03-04T01:59:57.576Z,0
2017-03-04T02:00:38.070Z,0
2017-03-04T02:01:18.585Z,0
2017-03-04T02:01:59.077Z,0
2017-03-04T02:02:39.545Z,0
2017-03-04T02:03:20.043Z,0
2017-03-04T02:04:00.549Z,0
2017-03-04T02:04:41.011Z,0
2017-03-04T02:05:21.506Z,0
2017-03-04T02:06:01.988Z,0
2017-03-04T02:06:42.491Z,0
2017-03-04T02:07:22.968Z,0
2017-03-04T02:08:03.487Z,0
2017-03-04T02:08:43.992Z,0
2017-03-04T02:09:24.519Z,0
2017-03-04T02:10:04.991Z,0
2017-03-04T02:10:45.508Z,0
2017-03-04T02:11:25.972Z,0
2017-03-04T02:12:06.639Z,0
2017-03-04T02:12:47.128Z,0
2017-03-04T02:13:27.676Z,0
2017-03-04T02:14:08.200Z,0
2017-03-04T02:14:48.747Z,0
2017-03-04T02:15:29.195Z,0
2017-03-04T02:16:09.708Z,0
2017-03-04T02:16:50.243Z,0
2017-03-04T02:17:30.749Z,0
2017-03-04T02:18:11.225Z,0
2017-03-04T02:18:51.777Z,0
2017-03-04T02:19:32.266Z,0
2017-03-04T02:20:12.716Z,0
2017-03-04T02:20:53.253Z,0
2017-03-04T02:21:33.732Z,0
2017-03-04T02:22:14.289Z,0
2017-03-04T02:22:54.771Z,0
2017-03-04T02:23:35.289Z,0
2017-03-04T02:24:15.753Z,0
2017-03-04T02:24:56.220Z,0
2017-03-04T02:25:36.772Z,0
2017-03-04T02:26:17.265Z,0
2017-03-04T02:26:57.777Z,0
2017-03-04T02:27:38.261Z,0
2017-03-04T02:28:18.749Z,0
2017-03-04T02:28:59.263Z,0
2017-03-04T02:29:39.742Z,0
2017-03-04T02:30:20.289Z,0
2017-03-04T02:31:00.792Z,0
2017-03-04T02:31:41.372Z,0
2017-03-04T02:32:21.903Z,0
2017-03-04T02:33:02.324Z,0
2017-03-04T02:33:42.890Z,0
2017-03-04T02:34:23.283Z,0
2017-03-04T02:35:03.804Z,0
2017-03-04T02:35:44.296Z,0
2017-03-04T02:36:24.746Z,0
2017-03-04T02:37:05.225Z,0
2017-03-04T02:37:45.735Z,0
2017-03-04T02:38:26.247Z,0
2017-03-04T02:39:06.744Z,0
2017-03-04T02:39:47.210Z,0
2017-03-04T02:40:27.731Z,0
2017-03-04T02:41:08.239Z,0
2017-03-04T02:41:48.692Z,0
2017-03-04T02:42:29.211Z,0
2017-03-04T02:43:09.819Z,0
2017-03-04T02:43:50.232Z,0
2017-03-04T02:44:30.754Z,0
2017-03-04T02:45:11.251Z,0
2017-03-04T02:45:51.716Z,0
2017-03-04T02:46:32.296Z,0
2017-03-04T02:47:12.745Z,0
2017-03-04T02:47:53.255Z,0
2017-03-04T02:48:33.745Z,0
2017-03-04T02:49:14.223Z,0
2017-03-04T02:49:54.803Z,0
2017-03-04T02:50:35.216Z,0
2017-03-04T02:51:15.730Z,0
2017-03-04T02:51:56.182Z,0
2017-03-04T02:52:36.693Z,0
2017-03-04T02:53:17.238Z,0
2017-03-04T02:53:57.688Z,0
2017-03-04T02:54:38.296Z,0
2017-03-04T02:55:18.785Z,0
2017-03-04T02:55:59.264Z,0
2017-03-04T02:56:39.786Z,0
2017-03-04T02:57:20.237Z,0
2017-03-04T02:58:00.766Z,0
2017-03-04T02:58:41.297Z,0
2017-03-04T02:59:21.771Z,0
2017-03-04T03:00:02.269Z,0
2017-03-04T03:00:42.720Z,0
2017-03-04T03:01:23.248Z,0
2017-03-04T03:02:03.709Z,0
2017-03-04T03:02:44.216Z,0
2017-03-04T03:03:24.703Z,0
2017-03-04T03:04:05.223Z,0
2017-03-04T03:04:45.725Z,0
2017-03-04T03:05:26.208Z,0
2017-03-04T03:06:06.707Z,0
2017-03-04T03:06:47.190Z,0
2017-03-04T03:07:27.707Z,0
2017-03-04T03:08:08.229Z,0
2017-03-04T03:08:48.705Z,0
2017-03-04T03:09:29.250Z,0
2017-03-04T03:10:09.714Z,0
2017-03-04T03:10:50.287Z,0
2017-03-04T03:11:30.711Z,0
2017-03-04T03:12:11.242Z,0
2017-03-04T03:12:51.770Z,0
2017-03-04T03:13:32.256Z,0
2017-03-04T03:14:12.771Z,0
2017-03-04T03:14:53.273Z,0
2017-03-04T03:15:33.787Z,0
2017-03-04T03:16:14.299Z,0
2017-03-04T03:16:54.778Z,0
2017-03-04T03:17:35.269Z,0
2017-03-04T03:18:15.819Z,0
2017-03-04T03:18:56.329Z,0
2017-03-04T03:19:36.807Z,0
2017-03-04T03:20:17.392Z,0
2017-03-04T03:20:57.922Z,0
2017-03-04T03:21:38.368Z,0
2017-03-04T03:22:18.830Z,0
2017-03-04T03:22:59.363Z,0
2017-03-04T03:23:39.817Z,0
2017-03-04T03:24:20.368Z,0
2017-03-04T03:25:00.887Z,0
2017-03-04T03:25:41.389Z,0
2017-03-04T03:26:21.903Z,0
2017-03-04T03:27:02.428Z,0
2017-03-04T03:27:43.077Z,0
2017-03-04T03:30:12.218Z,0
2017-03-04T03:30:52.740Z,0
2017-03-04T03:31:33.311Z,0
2017-03-04T03:32:13.823Z,0
2017-03-04T03:32:54.377Z,0
2017-03-04T03:33:34.847Z,0
2017-03-04T03:34:15.309Z,0
2017-03-04T03:34:55.753Z,0
2017-03-04T03:35:36.286Z,0
2017-03-04T03:36:16.751Z,0
2017-03-04T03:36:57.287Z,0
2017-03-04T03:37:37.948Z,0
2017-03-04T03:38:18.332Z,0
2017-03-04T03:38:58.825Z,0
2017-03-04T03:39:39.311Z,0
2017-03-04T03:40:19.809Z,0
2017-03-04T03:41:00.332Z,0
2017-03-04T03:41:40.825Z,0
2017-03-04T03:42:21.322Z,0
2017-03-04T03:43:01.831Z,0
2017-03-04T03:43:42.408Z,0
2017-03-04T03:44:22.902Z,0
2017-03-04T03:45:03.416Z,0
2017-03-04T03:45:43.912Z,0
2017-03-04T03:46:24.413Z,0
2017-03-04T03:47:04.931Z,0
2017-03-04T03:47:45.442Z,0
2017-03-04T03:48:25.923Z,0
2017-03-04T03:49:06.435Z,0
2017-03-04T03:49:46.923Z,0
2017-03-04T03:50:27.422Z,0
2017-03-04T03:51:07.913Z,0
2017-03-04T03:51:48.415Z,0
2017-03-04T03:52:28.902Z,0
2017-03-04T03:53:09.403Z,0
2017-03-04T03:53:49.968Z,0
2017-03-04T03:54:30.394Z,0
2017-03-04T03:55:10.948Z,0
2017-03-04T03:55:51.469Z,0
2017-03-04T03:56:31.942Z,0
2017-03-04T03:57:12.462Z,0
2017-03-04T03:57:52.874Z,0
2017-03-04T03:58:33.456Z,0
2017-03-04T03:59:13.959Z,0
2017-03-04T03:59:54.465Z,0
2017-03-04T04:00:34.939Z,0
2017-03-04T04:01:15.531Z,0
2017-03-04T04:01:55.963Z,0
2017-03-04T04:02:36.422Z,0
2017-03-04T04:03:16.942Z,0
2017-03-04T04:03:57.387Z,0
2017-03-04T04:04:37.866Z,0
2017-03-04T04:05:18.376Z,0
2017-03-04T04:05:58.891Z,0
2017-03-04T04:06:39.401Z,0
2017-03-04T04:07:19.859Z,0
2017-03-04T04:08:00.338Z,0
2017-03-04T04:08:40.872Z,0
2017-03-04T04:09:21.354Z,0
2017-03-04T04:10:01.834Z,0
2017-03-04T04:10:42.357Z,0
2017-03-04T04:11:22.845Z,0
2017-03-04T04:12:03.309Z,0
2017-03-04T04:12:43.799Z,0
2017-03-04T04:13:24.313Z,0
2017-03-04T04:14:04.758Z,0
2017-03-04T04:14:45.261Z,0
2017-03-04T04:15:25.839Z,0
2017-03-04T04:16:06.323Z,0
2017-03-04T04:16:46.800Z,0
2017-03-04T04:17:27.287Z,0
2017-03-04T04:18:07.824Z,0
2017-03-04T04:18:48.275Z,0
2017-03-04T04:19:28.728Z,0
2017-03-04T04:20:09.262Z,0
2017-03-04T04:20:49.759Z,0
2017-03-04T04:21:30.214Z,0
2017-03-04T04:22:10.688Z,0
2017-03-04T04:22:51.149Z,0
2017-03-04T04:23:31.659Z,0
2017-03-04T04:24:12.142Z,0
2017-03-04T04:24:52.608Z,0
2017-03-04T04:25:33.179Z,0
2017-03-04T04:26:13.661Z,0
2017-03-04T04:26:54.102Z,0
2017-03-04T04:27:34.651Z,0
2017-03-04T04:28:15.145Z,0
2017-03-04T04:28:55.627Z,0
2017-03-04T04:29:36.155Z,0
2017-03-04T04:30:16.620Z,0
2017-03-04T04:30:57.103Z,0
2017-03-04T04:31:37.595Z,0
2017-03-04T04:32:18.046Z,0
2017-03-04T04:32:58.548Z,0
2017-03-04T04:33:39.036Z,0
2017-03-04T04:34:19.543Z,0
2017-03-04T04:35:00.013Z,0
2017-03-04T04:35:40.533Z,0
2017-03-04T04:36:21.001Z,0
2017-03-04T04:37:01.522Z,0
2017-03-04T04:37:41.984Z,0
2017-03-04T04:38:22.579Z,0
2017-03-04T04:39:03.058Z,0
2017-03-04T04:39:43.593Z,0
2017-03-04T04:40:24.143Z,0
2017-03-04T04:41:04.617Z,0
2017-03-04T04:41:45.137Z,0
2017-03-04T04:42:25.622Z,0
2017-03-04T04:43:06.062Z,0
2017-03-04T04:43:46.558Z,0
2017-03-04T04:44:27.054Z,0
2017-03-04T04:45:07.502Z,0
2017-03-04T04:45:48.178Z,0
2017-03-04T04:46:28.669Z,0
2017-03-04T04:47:09.145Z,0
2017-03-04T04:47:49.731Z,0
2017-03-04T04:48:30.209Z,0
2017-03-04T04:49:10.891Z,0
2017-03-04T04:49:51.369Z,0
2017-03-04T04:50:31.892Z,0
2017-03-04T04:51:12.437Z,0
2017-03-04T04:51:52.878Z,0
2017-03-04T04:52:33.359Z,0
2017-03-04T04:53:13.896Z,0
2017-03-04T04:53:54.345Z,0
2017-03-04T04:54:34.862Z,0
2017-03-04T04:55:15.361Z,0
2017-03-04T04:55:55.812Z,0
2017-03-04T04:56:36.319Z,0
2017-03-04T04:57:16.780Z,0
2017-03-04T04:57:57.296Z,0
2017-03-04T04:58:37.774Z,0
2017-03-04T04:59:18.263Z,0
2017-03-04T04:59:58.723Z,0
2017-03-04T05:00:39.211Z,0
2017-03-04T05:01:19.784Z,0
2017-03-04T05:02:00.239Z,0
2017-03-04T05:02:40.681Z,0
2017-03-04T05:03:21.183Z,0
2017-03-04T05:04:01.667Z,0
2017-03-04T05:04:42.163Z,0
2017-03-04T05:05:22.666Z,0
2017-03-04T05:06:03.167Z,0
2017-03-04T05:06:43.661Z,0
2017-03-04T05:07:24.148Z,0
2017-03-04T05:08:04.661Z,0
2017-03-04T05:08:45.096Z,0
2017-03-04T05:09:25.641Z,0
2017-03-04T05:10:06.134Z,0
2017-03-04T05:10:46.625Z,0
2017-03-04T05:11:27.123Z,0
2017-03-04T05:12:07.585Z,0
2017-03-04T05:12:48.108Z,0
2017-03-04T05:13:28.636Z,0
2017-03-04T05:14:09.062Z,0
2017-03-04T05:14:49.604Z,0
2017-03-04T05:15:30.031Z,0
2017-03-04T05:16:10.531Z,0
2017-03-04T05:16:51.016Z,0
2017-03-04T05:17:31.572Z,0
2017-03-04T05:18:12.001Z,0
2017-03-04T05:18:52.522Z,0
2017-03-04T05:19:32.980Z,0
2017-03-04T05:20:13.467Z,0
2017-03-04T05:20:53.932Z,0
2017-03-04T05:21:34.440Z,0
2017-03-04T05:22:15.006Z,0
2017-03-04T05:22:55.500Z,0
2017-03-04T05:23:36.006Z,0
2017-03-04T05:24:16.483Z,0
2017-03-04T05:24:56.991Z,0
2017-03-04T05:25:37.459Z,0
2017-03-04T05:26:17.970Z,0
2017-03-04T05:26:58.531Z,0
2017-03-04T05:27:38.963Z,0
2017-03-04T05:28:19.461Z,0
2017-03-04T05:28:59.985Z,0
2017-03-04T05:29:40.449Z,0
2017-03-04T05:30:20.918Z,0
2017-03-04T05:31:01.430Z,0
2017-03-04T05:31:41.928Z,0
2017-03-04T05:32:22.447Z,0
2017-03-04T05:33:02.899Z,0
2017-03-04T05:33:43.386Z,0
2017-03-04T05:34:23.888Z,0
2017-03-04T05:35:04.375Z,0
2017-03-04T05:35:44.848Z,0
2017-03-04T05:36:25.316Z,0
2017-03-04T05:37:05.878Z,0
2017-03-04T05:37:46.384Z,0
2017-03-04T05:38:26.859Z,0
2017-03-04T05:39:07.347Z,0
2017-03-04T05:39:47.888Z,0
2017-03-04T05:40:28.340Z,0
2017-03-04T05:41:08.833Z,0
2017-03-04T05:41:49.312Z,0
2017-03-04T05:42:29.923Z,0
2017-03-04T05:43:10.507Z,0
2017-03-04T05:43:51.013Z,0
2017-03-04T05:44:31.465Z,0
2017-03-04T05:45:11.944Z,0
2017-03-04T05:45:52.464Z,0
2017-03-04T05:46:32.956Z,0
2017-03-04T05:47:13.451Z,0
2017-03-04T05:47:53.985Z,0
2017-03-04T05:48:34.472Z,0
2017-03-04T05:49:14.947Z,0
2017-03-04T05:49:55.453Z,0
2017-03-04T05:50:35.933Z,0
2017-03-04T05:51:16.441Z,0
2017-03-04T05:51:56.905Z,0
2017-03-04T05:52:37.396Z,0
2017-03-04T05:53:17.889Z,0
2017-03-04T05:53:58.407Z,0
2017-03-04T05:54:39.141Z,0
2017-03-04T05:55:19.832Z,0
2017-03-04T05:56:00.382Z,0
2017-03-04T05:56:40.810Z,5
2017-03-04T05:57:21.390Z,5
2017-03-04T05:58:01.934Z,5
2017-03-04T05:58:42.416Z,5
2017-03-04T05:59:22.921Z,5
2017-03-04T06:00:03.386Z,5
2017-03-04T06:00:44.022Z,5
2017-03-04T06:01:24.931Z,5
2017-03-04T06:02:05.749Z,5
2017-03-04T06:02:46.137Z,5
2017-03-04T06:03:26.611Z,10
2017-03-04T06:04:07.208Z,10
2017-03-04T06:04:48.066Z,10
2017-03-04T06:05:28.601Z,10
2017-03-04T06:06:09.062Z,10
2017-03-04T06:06:49.610Z,10
2017-03-04T06:07:30.054Z,10
2017-03-04T06:08:10.536Z,15
2017-03-04T06:08:51.040Z,15
2017-03-04T06:09:31.493Z,15
2017-03-04T06:10:12.037Z,15
2017-03-04T06:10:52.495Z,15
2017-03-04T06:11:33.019Z,20
2017-03-04T06:12:13.541Z,20
2017-03-04T06:12:54.129Z,20
2017-03-04T06:13:35.006Z,20
2017-03-04T06:14:15.477Z,20
2017-03-04T06:14:56.205Z,20
2017-03-04T06:15:36.858Z,25
2017-03-04T06:16:17.578Z,25
2017-03-04T06:16:58.208Z,25
2017-03-04T06:17:38.573Z,25
2017-03-04T06:18:19.080Z,30
2017-03-04T06:18:59.560Z,30
2017-03-04T06:19:40.050Z,30
2017-03-04T06:20:20.635Z,30
2017-03-04T06:21:04.598Z,30
2017-03-04T06:21:45.309Z,35
2017-03-04T06:22:25.920Z,35
2017-03-04T06:23:06.569Z,35
2017-03-04T06:23:47.027Z,40
2017-03-04T06:24:27.653Z,40
2017-03-04T06:25:08.178Z,40
2017-03-04T06:25:48.671Z,40
2017-03-04T06:26:29.181Z,45
2017-03-04T06:27:09.605Z,45
2017-03-04T06:27:50.070Z,50
2017-03-04T06:28:30.582Z,50
2017-03-04T06:29:11.109Z,50
2017-03-04T06:29:51.586Z,55
2017-03-04T06:30:32.061Z,55
2017-03-04T06:31:12.539Z,55
2017-03-04T06:31:53.056Z,60
2017-03-04T06:32:33.581Z,60
2017-03-04T06:33:14.018Z,60
2017-03-04T06:33:54.507Z,60
2017-03-04T06:34:34.981Z,65
2017-03-04T06:35:15.520Z,65
2017-03-04T06:35:56.053Z,65
2017-03-04T06:36:36.533Z,65
2017-03-04T06:37:16.993Z,70
2017-03-04T06:37:57.579Z,70
2017-03-04T06:38:38.194Z,70
2017-03-04T06:39:19.613Z,70
2017-03-04T06:40:00.378Z,75
2017-03-04T06:40:43.948Z,75
2017-03-04T06:41:24.499Z,75
2017-03-04T06:42:04.857Z,80
2017-03-04T06:42:45.657Z,80
2017-03-04T06:43:26.107Z,80
2017-03-04T06:44:06.614Z,80
2017-03-04T06:44:47.163Z,85
2017-03-04T06:45:27.706Z,80
2017-03-04T06:46:08.185Z,80
2017-03-04T06:46:48.663Z,80
2017-03-04T06:47:29.157Z,85
2017-03-04T06:48:09.657Z,85
2017-03-04T06:48:50.140Z,85
2017-03-04T06:49:30.607Z,90
2017-03-04T06:50:11.106Z,95
2017-03-04T06:50:51.653Z,110
2017-03-04T06:51:32.192Z,120
2017-03-04T06:52:12.709Z,140
2017-03-04T06:52:53.206Z,155
2017-03-04T06:53:33.681Z,160
2017-03-04T06:54:14.175Z,165
2017-03-04T06:54:54.670Z,165
2017-03-04T06:55:35.138Z,165
2017-03-04T06:56:15.742Z,175
2017-03-04T06:56:56.213Z,170
2017-03-04T06:57:36.683Z,165
2017-03-04T06:58:17.157Z,170
2017-03-04T06:58:57.694Z,175
2017-03-04T06:59:38.131Z,175
2017-03-04T07:00:18.651Z,180
2017-03-04T07:00:59.220Z,180
2017-03-04T07:01:39.655Z,170
2017-03-04T07:02:20.184Z,165
2017-03-04T07:03:00.645Z,170
2017-03-04T07:03:41.191Z,165
2017-03-04T07:04:21.662Z,160
2017-03-04T07:05:02.137Z,155
2017-03-04T07:05:42.627Z,150
2017-03-04T07:06:23.114Z,155
2017-03-04T07:07:03.616Z,155
2017-03-04T07:07:44.083Z,155
2017-03-04T07:08:24.607Z,160
2017-03-04T07:09:05.152Z,165
2017-03-04T07:09:45.594Z,165
2017-03-04T07:10:26.154Z,165
2017-03-04T07:11:06.817Z,165
2017-03-04T07:11:47.348Z,165
2017-03-04T07:12:27.800Z,165
2017-03-04T07:13:08.324Z,170
2017-03-04T07:13:48.793Z,170
2017-03-04T07:14:29.257Z,165
2017-03-04T07:15:09.826Z,165
2017-03-04T07:15:50.339Z,165
2017-03-04T07:16:30.826Z,160
2017-03-04T07:17:11.295Z,155
2017-03-04T07:17:51.826Z,155
2017-03-04T07:18:32.303Z,150
2017-03-04T07:19:12.815Z,150
2017-03-04T07:19:53.308Z,150
2017-03-04T07:20:33.840Z,150
2017-03-04T07:21:14.342Z,145
2017-03-04T07:21:54.815Z,145
2017-03-04T07:22:35.282Z,145
2017-03-04T07:23:15.849Z,145
2017-03-04T07:23:56.297Z,140
2017-03-04T07:24:36.797Z,140
2017-03-04T07:25:17.285Z,135
2017-03-04T07:25:57.756Z,135
2017-03-04T07:26:38.276Z,135
2017-03-04T07:27:18.811Z,130
2017-03-04T07:27:59.270Z,130
2017-03-04T07:28:39.801Z,130
2017-03-04T07:29:20.249Z,130
2017-03-04T07:30:00.746Z,130
2017-03-04T07:30:41.251Z,130
2017-03-04T07:31:21.755Z,125
2017-03-04T07:32:02.278Z,125
2017-03-04T07:32:42.753Z,125
2017-03-04T07:33:23.237Z,125
2017-03-04T07:34:03.780Z,125
2017-03-04T07:34:44.211Z,125
2017-03-04T07:35:24.719Z,125
2017-03-04T07:36:05.195Z,125
2017-03-04T07:36:45.716Z,130
2017-03-04T07:37:26.260Z,125
2017-03-04T07:38:06.703Z,125
2017-03-04T07:38:47.188Z,125
2017-03-04T07:39:27.669Z,125
2017-03-04T07:40:08.185Z,130
2017-03-04T07:40:48.697Z,130
2017-03-04T07:41:29.206Z,130
2017-03-04T07:42:09.665Z,135
2017-03-04T07:42:50.148Z,135
2017-03-04T07:43:30.659Z,135
2017-03-04T07:44:11.292Z,130
2017-03-04T07:44:51.802Z,130
2017-03-04T07:45:32.395Z,130
2017-03-04T07:46:12.835Z,125
2017-03-04T07:46:53.337Z,130
2017-03-04T07:47:33.892Z,125
2017-03-04T07:48:14.292Z,125
2017-03-04T07:48:54.768Z,125
2017-03-04T07:49:35.325Z,120
2017-03-04T07:50:15.826Z,125
2017-03-04T07:50:56.299Z,125
2017-03-04T07:51:36.836Z,125
2017-03-04T07:52:17.478Z,125
2017-03-04T07:52:57.938Z,125
2017-03-04T07:53:38.956Z,125
2017-03-04T07:54:19.411Z,130
2017-03-04T07:54:59.991Z,130
2017-03-04T07:55:40.574Z,130
2017-03-04T07:56:21.097Z,130
2017-03-04T07:57:01.624Z,135
2017-03-04T07:57:42.100Z,135
2017-03-04T07:58:22.645Z,140
2017-03-04T07:59:03.181Z,140
2017-03-04T07:59:43.639Z,140
2017-03-04T08:00:24.153Z,140
2017-03-04T08:01:04.642Z,140
2017-03-04T08:01:45.168Z,140
2017-03-04T08:02:25.629Z,140
2017-03-04T08:03:06.176Z,145
2017-03-04T08:03:46.688Z,145
2017-03-04T08:04:27.165Z,140
2017-03-04T08:05:07.711Z,145
2017-03-04T08:05:48.167Z,145
2017-03-04T08:06:28.642Z,145
2017-03-04T08:07:09.146Z,145
2017-03-04T08:07:49.730Z,145
2017-03-04T08:08:30.269Z,150
2017-03-04T08:09:10.914Z,150
2017-03-04T08:09:51.424Z,150
2017-03-04T08:10:31.930Z,145
2017-03-04T08:11:12.498Z,150
2017-03-04T08:11:52.996Z,145
2017-03-04T08:12:33.587Z,135
2017-03-04T08:13:14.209Z,135
2017-03-04T08:13:55.007Z,140
2017-03-04T08:14:35.492Z,145
2017-03-04T08:15:16.055Z,150
2017-03-04T08:15:56.505Z,150
2017-03-04T08:16:37.005Z,155
2017-03-04T08:17:17.531Z,155
2017-03-04T08:17:57.993Z,155
2017-03-04T08:18:38.482Z,160
2017-03-04T08:19:18.994Z,165
2017-03-04T08:19:59.522Z,170
2017-03-04T08:20:39.986Z,175
2017-03-04T08:21:20.487Z,175
2017-03-04T08:22:00.966Z,180
2017-03-04T08:22:41.473Z,180
2017-03-04T08:23:22.035Z,185
2017-03-04T08:24:02.519Z,185
2017-03-04T08:24:42.953Z,185
2017-03-04T08:25:23.474Z,185
2017-03-04T08:26:03.981Z,185
2017-03-04T08:26:44.501Z,190
2017-03-04T08:27:25.081Z,185
2017-03-04T08:28:05.553Z,185
2017-03-04T08:28:46.025Z,190
2017-03-04T08:29:26.572Z,195
2017-03-04T08:30:07.144Z,195
2017-03-04T08:30:47.670Z,190
2017-03-04T08:31:28.179Z,185
2017-03-04T08:32:08.634Z,180
2017-03-04T08:32:49.168Z,180
2017-03-04T08:33:29.671Z,175
2017-03-04T08:34:10.258Z,180
2017-03-04T08:34:50.779Z,180
2017-03-04T08:35:31.263Z,185
2017-03-04T08:36:11.742Z,185
2017-03-04T08:36:52.367Z,185
2017-03-04T08:37:32.768Z,190
2017-03-04T08:38:13.252Z,195
2017-03-04T08:38:53.748Z,205
2017-03-04T08:39:34.256Z,210
2017-03-04T08:40:14.769Z,220
2017-03-04T08:40:55.268Z,225
2017-03-04T08:41:35.702Z,230
2017-03-04T08:42:16.191Z,240
2017-03-04T08:42:56.732Z,240
2017-03-04T08:43:37.255Z,245
2017-03-04T08:44:17.678Z,255
2017-03-04T08:44:58.190Z,255
2017-03-04T08:45:38.636Z,260
2017-03-04T08:46:19.104Z,265
2017-03-04T08:46:59.752Z,265
2017-03-04T08:47:40.261Z,265
2017-03-04T08:48:20.751Z,265
2017-03-04T08:49:01.293Z,265
2017-03-04T08:49:41.811Z,265
2017-03-04T08:50:22.315Z,270
2017-03-04T08:51:02.817Z,270
2017-03-04T08:51:43.363Z,275
2017-03-04T08:52:24.070Z,285
2017-03-04T08:53:04.559Z,280
2017-03-04T08:53:45.027Z,285
2017-03-04T08:54:25.577Z,285
2017-03-04T08:55:06.054Z,285
2017-03-04T08:55:46.483Z,285
2017-03-04T08:56:27.007Z,290
2017-03-04T08:57:07.505Z,285
2017-03-04T08:57:48.168Z,285
2017-03-04T08:58:28.608Z,285
2017-03-04T08:59:09.168Z,285
2017-03-04T08:59:49.675Z,280
2017-03-04T09:00:30.209Z,280
2017-03-04T09:01:10.768Z,280
2017-03-04T09:01:51.252Z,280
2017-03-04T09:02:31.777Z,275
2017-03-04T09:03:12.218Z,275
2017-03-04T09:03:52.727Z,270
2017-03-04T09:04:33.209Z,270
2017-03-04T09:05:13.725Z,270
2017-03-04T09:05:54.197Z,270
2017-03-04T09:06:34.702Z,265
2017-03-04T09:07:15.262Z,265
2017-03-04T09:07:55.771Z,265
2017-03-04T09:08:36.258Z,265
2017-03-04T09:09:16.878Z,270
2017-03-04T09:09:57.351Z,265
2017-03-04T09:10:37.861Z,265
2017-03-04T09:11:18.376Z,265
2017-03-04T09:11:59.089Z,265
2017-03-04T09:12:39.830Z,265
2017-03-04T09:13:20.275Z,255
2017-03-04T09:14:00.843Z,245
2017-03-04T09:14:41.458Z,235
2017-03-04T09:15:21.888Z,225
2017-03-04T09:16:02.696Z,215
2017-03-04T09:16:43.297Z,210
2017-03-04T09:17:23.688Z,205
2017-03-04T09:18:04.159Z,200
2017-03-04T09:18:44.690Z,200
2017-03-04T09:19:25.199Z,195
2017-03-04T09:20:05.768Z,195
2017-03-04T09:20:46.279Z,190
2017-03-04T09:21:26.722Z,190
2017-03-04T09:22:07.201Z,190
2017-03-04T09:22:47.736Z,190
2017-03-04T09:23:28.359Z,190
2017-03-04T09:24:08.853Z,190
2017-03-04T09:24:49.328Z,190
2017-03-04T09:25:29.919Z,195
2017-03-04T09:26:10.450Z,200
2017-03-04T09:26:50.988Z,205
2017-03-04T09:27:31.523Z,210
2017-03-04T09:28:11.940Z,215
2017-03-04T09:28:52.514Z,220
2017-03-04T09:29:32.949Z,230
2017-03-04T09:30:13.435Z,230
2017-03-04T09:30:53.965Z,235
2017-03-04T09:31:34.435Z,235
2017-03-04T09:32:14.961Z,235
2017-03-04T09:32:55.429Z,240
2017-03-04T09:33:35.947Z,235
2017-03-04T09:34:16.400Z,235
2017-03-04T09:34:56.891Z,230
2017-03-04T09:35:37.511Z,235
2017-03-04T09:36:17.951Z,230
2017-03-04T09:36:58.421Z,225
2017-03-04T09:37:38.901Z,225
2017-03-04T09:38:19.365Z,220
2017-03-04T09:38:59.863Z,220
2017-03-04T09:39:40.331Z,220
2017-03-04T09:40:20.866Z,220
2017-03-04T09:41:01.356Z,220
2017-03-04T09:41:41.910Z,215
2017-03-04T09:42:22.530Z,215
2017-03-04T09:43:02.991Z,215
2017-03-04T09:43:43.556Z,210
2017-03-04T09:44:24.000Z,210
2017-03-04T09:45:04.524Z,210
2017-03-04T09:45:44.982Z,210
2017-03-04T09:46:25.553Z,210